createdAt,value
2019-03-16T00:00:57.557Z,69.00
2019-03-16T00:03:25.555Z,73.10
2019-03-16T00:05:53.623Z,71.70
2019-03-16T00:08:21.656Z,72.27
2019-03-16T00:10:49.652Z,70.97
2019-03-16T00:13:17.717Z,69.00
2019-03-16T00:15:45.795Z,70.43
2019-03-16T00:18:13.889Z,70.07
2019-03-16T00:20:41.931Z,97.00
2019-03-16T00:23:09.906Z,102.40
2019-03-16T00:25:37.972Z,83.77
2019-03-16T00:28:05.898Z,77.90
2019-03-16T00:30:33.936Z,84.50
2019-03-16T00:33:02.284Z,77.60
2019-03-16T00:35:30.233Z,81.47
2019-03-16T00:37:58.229Z,74.70
2019-03-16T00:40:26.236Z,81.53
2019-03-16T00:42:54.176Z,119.83
2019-03-16T00:45:22.137Z,110.63
2019-03-16T00:47:50.221Z,90.10
2019-03-16T00:50:18.304Z,111.67
2019-03-16T00:52:46.392Z,101.30
2019-03-16T00:55:14.424Z,79.40
2019-03-16T00:57:42.503Z,75.90
2019-03-16T01:00:10.844Z,80.20
2019-03-16T01:02:38.842Z,74.30
2019-03-16T01:05:07.125Z,75.77
2019-03-16T01:07:35.201Z,77.60
2019-03-16T01:10:03.270Z,74.17
2019-03-16T01:12:31.327Z,73.10
2019-03-16T01:14:59.342Z,71.30
2019-03-16T01:17:27.359Z,74.87
2019-03-16T01:19:55.345Z,75.40
2019-03-16T01:22:23.397Z,72.70
2019-03-16T01:24:51.398Z,72.40
2019-03-16T01:27:19.436Z,73.67
2019-03-16T01:29:47.406Z,78.10
2019-03-16T01:32:15.376Z,74.27
2019-03-16T01:34:44.315Z,70.33
2019-03-16T01:37:12.636Z,70.10
2019-03-16T01:39:40.612Z,72.80
2019-03-16T01:42:08.583Z,73.30
2019-03-16T01:44:36.602Z,70.60
2019-03-16T01:47:04.535Z,70.37
2019-03-16T01:49:32.616Z,71.07
2019-03-16T01:52:00.619Z,72.33
2019-03-16T01:54:28.659Z,73.30
2019-03-16T01:56:56.721Z,74.10
2019-03-16T01:59:24.795Z,72.07
2019-03-16T02:01:52.854Z,71.37
2019-03-16T02:04:20.822Z,73.13
2019-03-16T02:06:48.826Z,72.23
2019-03-16T02:09:16.909Z,72.57
2019-03-16T02:11:44.841Z,73.67
2019-03-16T02:14:12.889Z,71.70
2019-03-16T02:16:41.153Z,70.57
2019-03-16T02:19:09.144Z,69.77
2019-03-16T02:21:37.186Z,70.70
2019-03-16T02:24:05.107Z,70.40
2019-03-16T02:26:33.143Z,72.00
2019-03-16T02:29:01.178Z,69.83
2019-03-16T02:31:29.201Z,70.00
2019-03-16T02:33:57.199Z,69.50
2019-03-16T02:36:25.254Z,69.60
2019-03-16T02:38:53.199Z,71.47
2019-03-16T02:41:21.264Z,69.93
2019-03-16T02:43:49.280Z,70.30
2019-03-16T02:46:17.336Z,72.33
2019-03-16T02:48:45.295Z,69.80
2019-03-16T02:51:14.842Z,71.40
2019-03-16T02:53:42.888Z,71.30
2019-03-16T02:56:10.832Z,70.07
2019-03-16T02:58:38.842Z,69.10
2019-03-16T03:01:06.868Z,68.93
2019-03-16T03:03:34.855Z,68.77
2019-03-16T03:06:02.932Z,71.87
2019-03-16T03:08:30.880Z,71.23
2019-03-16T03:10:58.892Z,70.27
2019-03-16T03:13:26.816Z,69.10
2019-03-16T03:15:54.810Z,69.77
2019-03-16T03:18:22.865Z,71.60
2019-03-16T03:20:50.870Z,72.50
2019-03-16T03:23:18.899Z,70.33
2019-03-16T03:25:46.895Z,71.30
2019-03-16T03:28:14.950Z,71.50
2019-03-16T03:30:43.202Z,74.97
2019-03-16T03:33:11.404Z,74.37
2019-03-16T03:35:39.367Z,70.87
2019-03-16T03:38:07.350Z,70.50
2019-03-16T03:40:35.398Z,71.70
2019-03-16T03:43:03.406Z,71.20
2019-03-16T03:45:31.433Z,74.27
2019-03-16T03:47:59.411Z,70.97
2019-03-16T03:50:27.407Z,72.00
2019-03-16T03:52:55.457Z,70.97
2019-03-16T03:55:23.575Z,69.50
2019-03-16T03:57:51.650Z,72.57
2019-03-16T04:00:19.696Z,77.20
2019-03-16T04:02:47.951Z,71.10
2019-03-16T04:05:15.937Z,75.17
2019-03-16T04:07:44.012Z,69.40
2019-03-16T04:10:12.265Z,71.23
2019-03-16T04:12:40.241Z,71.97
2019-03-16T04:15:08.231Z,76.00
2019-03-16T04:17:36.294Z,69.93
2019-03-16T04:20:04.639Z,72.93
2019-03-16T04:22:32.645Z,69.27
2019-03-16T04:25:00.702Z,72.67
2019-03-16T04:27:28.647Z,73.50
2019-03-16T04:29:56.671Z,70.13
2019-03-16T04:32:24.710Z,71.13
2019-03-16T04:34:52.798Z,71.77
2019-03-16T04:37:20.854Z,69.50
2019-03-16T04:39:48.941Z,70.40
2019-03-16T04:42:17.014Z,76.03
2019-03-16T04:44:45.097Z,69.90
2019-03-16T04:47:13.151Z,69.63
2019-03-16T04:49:41.200Z,70.07
2019-03-16T04:52:09.239Z,69.37
2019-03-16T04:54:37.270Z,69.67
2019-03-16T04:57:05.314Z,69.83
2019-03-16T04:59:33.302Z,70.40
2019-03-16T05:02:01.272Z,70.47
2019-03-16T05:04:41.977Z,71.47
2019-03-16T05:06:59.441Z,73.10
2019-03-16T05:09:27.441Z,68.73
2019-03-16T05:11:55.621Z,69.83
2019-03-16T05:14:23.667Z,68.90
2019-03-16T05:16:51.650Z,71.00
2019-03-16T05:19:19.680Z,69.43
2019-03-16T05:21:47.685Z,69.77
2019-03-16T05:24:15.746Z,70.00
2019-03-16T05:26:43.801Z,69.27
2019-03-16T05:29:12.076Z,69.87
2019-03-16T05:31:40.071Z,70.43
2019-03-16T05:34:08.116Z,69.97
2019-03-16T05:36:36.117Z,70.27
2019-03-16T05:39:05.786Z,68.30
2019-03-16T05:41:33.800Z,68.97
2019-03-16T05:44:01.770Z,68.80
2019-03-16T05:46:29.765Z,68.80
2019-03-16T05:48:57.793Z,70.33
2019-03-16T05:51:25.930Z,69.63
2019-03-16T05:53:53.968Z,74.20
2019-03-16T05:56:21.912Z,70.87
2019-03-16T05:58:49.989Z,68.97
2019-03-16T06:01:18.044Z,68.80
2019-03-16T06:03:45.998Z,68.13
2019-03-16T06:06:14.016Z,67.40
2019-03-16T06:08:41.942Z,68.00
2019-03-16T06:11:09.989Z,67.97
2019-03-16T06:13:37.973Z,67.53
2019-03-16T06:16:05.992Z,67.30
2019-03-16T06:18:34.021Z,68.53
2019-03-16T06:21:02.328Z,68.70
2019-03-16T06:23:30.365Z,68.47
2019-03-16T06:25:58.347Z,67.67
2019-03-16T06:28:26.336Z,70.57
2019-03-16T06:30:54.390Z,68.67
2019-03-16T06:33:22.378Z,73.97
2019-03-16T06:35:50.429Z,69.20
2019-03-16T06:38:18.392Z,68.53
2019-03-16T06:40:46.388Z,71.00
2019-03-16T06:43:14.330Z,70.77
2019-03-16T06:45:42.296Z,72.40
2019-03-16T06:48:10.302Z,70.20
2019-03-16T06:50:38.356Z,69.00
2019-03-16T06:53:06.339Z,68.20
2019-03-16T06:55:34.330Z,68.13
2019-03-16T06:58:02.381Z,68.43
2019-03-16T07:00:30.507Z,72.53
2019-03-16T07:02:58.481Z,68.67
2019-03-16T07:05:37.690Z,68.20
2019-03-16T07:07:56.384Z,71.80
2019-03-16T07:10:24.350Z,69.10
2019-03-16T07:12:52.341Z,73.27
2019-03-16T07:15:20.389Z,73.97
2019-03-16T07:17:48.380Z,67.97
2019-03-16T07:20:16.340Z,73.80
2019-03-16T07:22:44.325Z,72.67
2019-03-16T07:25:12.284Z,73.30
2019-03-16T07:27:40.248Z,71.00
2019-03-16T07:30:08.479Z,70.07
2019-03-16T07:32:36.473Z,76.43
2019-03-16T07:35:05.111Z,73.50
2019-03-16T07:37:33.128Z,74.17
2019-03-16T07:40:01.130Z,68.97
2019-03-16T07:42:29.101Z,71.63
2019-03-16T07:45:07.454Z,68.97
2019-03-16T07:47:26.753Z,68.57
2019-03-16T07:49:54.737Z,69.57
2019-03-16T07:52:22.799Z,69.80
2019-03-16T07:54:50.811Z,69.90
2019-03-16T07:57:18.735Z,73.37
2019-03-16T07:59:46.724Z,75.17
2019-03-16T08:02:14.683Z,69.13
2019-03-16T08:04:43.585Z,69.10
2019-03-16T08:07:11.737Z,68.93
2019-03-16T08:09:39.811Z,71.53
2019-03-16T08:12:07.902Z,71.70
2019-03-16T08:14:35.952Z,71.67
2019-03-16T08:17:04.039Z,73.27
2019-03-16T08:19:32.506Z,75.97
2019-03-16T08:22:00.449Z,86.30
2019-03-16T08:24:28.437Z,74.57
2019-03-16T08:26:56.409Z,73.30
2019-03-16T08:29:24.389Z,75.60
2019-03-16T08:31:52.462Z,76.43
2019-03-16T08:34:20.532Z,77.33
2019-03-16T08:36:48.603Z,82.40
2019-03-16T08:39:16.553Z,77.20
2019-03-16T08:41:44.782Z,83.20
2019-03-16T08:44:12.945Z,75.90
2019-03-16T08:46:40.978Z,83.50
2019-03-16T08:49:09.686Z,76.23
2019-03-16T08:51:37.919Z,78.53
2019-03-16T08:54:05.969Z,80.97
2019-03-16T08:56:33.877Z,78.53
2019-03-16T08:59:01.844Z,68.77
2019-03-16T09:01:30.150Z,68.57
2019-03-16T09:03:58.206Z,68.57
2019-03-16T09:06:26.156Z,69.57
2019-03-16T09:08:54.151Z,70.07
2019-03-16T09:11:22.230Z,72.17
2019-03-16T09:13:50.368Z,69.60
2019-03-16T09:16:18.363Z,69.63
2019-03-16T09:18:46.426Z,69.90
2019-03-16T09:21:14.514Z,70.30
2019-03-16T09:23:42.569Z,69.10
2019-03-16T09:26:10.716Z,69.33
2019-03-16T09:28:38.702Z,68.90
2019-03-16T09:31:06.734Z,72.57
2019-03-16T09:33:34.972Z,72.87
2019-03-16T09:36:03.019Z,69.47
2019-03-16T09:38:30.982Z,69.10
2019-03-16T09:40:59.068Z,70.80
2019-03-16T09:43:27.036Z,68.77
2019-03-16T09:45:55.035Z,67.80
2019-03-16T09:48:23.072Z,70.03
2019-03-16T09:50:51.063Z,71.57
2019-03-16T09:53:19.352Z,70.87
2019-03-16T09:55:47.338Z,70.20
2019-03-16T09:58:15.379Z,70.27
2019-03-16T10:00:44.010Z,72.57
2019-03-16T10:03:12.035Z,70.13
2019-03-16T10:05:40.062Z,71.20
2019-03-16T10:08:08.254Z,68.47
2019-03-16T10:10:36.364Z,69.00
2019-03-16T10:13:04.479Z,69.33
2019-03-16T10:15:32.483Z,69.77
2019-03-16T10:18:00.520Z,69.70
2019-03-16T10:20:28.655Z,75.40
2019-03-16T10:22:56.625Z,69.17
2019-03-16T10:25:24.644Z,72.27
2019-03-16T10:27:52.626Z,69.67
2019-03-16T10:30:20.736Z,68.10
2019-03-16T10:32:48.913Z,69.27
2019-03-16T10:35:16.861Z,70.20
2019-03-16T10:37:45.028Z,67.50
2019-03-16T10:40:12.978Z,68.57
2019-03-16T10:42:41.053Z,67.70
2019-03-16T10:45:09.193Z,67.90
2019-03-16T10:47:37.106Z,68.10
2019-03-16T10:50:05.656Z,68.27
2019-03-16T10:52:33.656Z,69.50
2019-03-16T10:55:01.827Z,68.50
2019-03-16T10:57:29.802Z,67.40
2019-03-16T10:59:57.853Z,67.57
2019-03-16T11:02:25.843Z,68.13
2019-03-16T11:04:54.378Z,68.90
2019-03-16T11:07:22.396Z,69.30
2019-03-16T11:09:50.484Z,68.67
2019-03-16T11:12:18.538Z,67.77
2019-03-16T11:14:46.486Z,68.07
2019-03-16T11:17:14.522Z,67.07
2019-03-16T11:19:42.520Z,74.10
2019-03-16T11:22:10.497Z,69.53
2019-03-16T11:24:38.493Z,73.27
2019-03-16T11:27:06.446Z,69.97
2019-03-16T11:29:34.507Z,67.90
2019-03-16T11:32:02.563Z,67.83
2019-03-16T11:34:30.560Z,68.27
2019-03-16T11:36:58.621Z,67.80
2019-03-16T11:39:26.592Z,68.77
2019-03-16T11:41:54.785Z,73.67
2019-03-16T11:44:22.757Z,69.40
2019-03-16T11:46:50.718Z,67.67
2019-03-16T11:49:18.888Z,68.10
2019-03-16T11:51:46.894Z,69.80
2019-03-16T11:54:15.128Z,69.00
2019-03-16T11:56:43.253Z,69.80
2019-03-16T11:59:21.108Z,75.40
2019-03-16T12:01:41.049Z,72.43
2019-03-16T12:04:09.139Z,69.47
2019-03-16T12:06:37.119Z,70.07
2019-03-16T12:09:06.759Z,69.17
2019-03-16T12:11:34.854Z,68.40
2019-03-16T12:14:02.942Z,70.33
2019-03-16T12:16:30.938Z,71.67
2019-03-16T12:18:59.249Z,80.57
2019-03-16T12:21:27.270Z,72.00
2019-03-16T12:23:55.308Z,68.20
2019-03-16T12:26:23.300Z,75.53
2019-03-16T12:28:51.725Z,69.27
2019-03-16T12:31:19.772Z,69.90
2019-03-16T12:33:47.766Z,71.47
2019-03-16T12:36:15.820Z,69.07
2019-03-16T12:38:43.877Z,69.10
2019-03-16T12:41:11.888Z,70.60
2019-03-16T12:43:40.007Z,68.57
2019-03-16T12:46:08.089Z,70.47
2019-03-16T12:48:36.108Z,69.50
2019-03-16T12:51:04.171Z,68.97
2019-03-16T12:53:32.146Z,72.30
2019-03-16T12:56:00.478Z,68.43
2019-03-16T12:58:28.650Z,69.87
2019-03-16T13:00:56.808Z,68.17
2019-03-16T13:03:24.934Z,69.67
2019-03-16T13:05:52.975Z,69.33
2019-03-16T13:08:20.989Z,69.17
2019-03-16T13:10:49.162Z,70.07
2019-03-16T13:13:17.192Z,70.50
2019-03-16T13:15:45.317Z,69.67
2019-03-16T13:18:13.406Z,70.10
2019-03-16T13:20:41.779Z,68.80
2019-03-16T13:23:09.701Z,69.30
2019-03-16T13:25:37.818Z,74.23
2019-03-16T13:28:05.938Z,69.70
2019-03-16T13:30:34.001Z,73.47
2019-03-16T13:33:02.014Z,68.57
2019-03-16T13:35:30.088Z,82.60
2019-03-16T13:37:58.128Z,70.90
2019-03-16T13:40:26.196Z,69.47
2019-03-16T13:42:54.446Z,69.47
2019-03-16T13:45:22.472Z,69.07
2019-03-16T13:47:51.942Z,69.40
2019-03-16T13:50:20.200Z,69.77
2019-03-16T13:52:48.528Z,69.10
2019-03-16T13:55:16.700Z,71.00
2019-03-16T13:57:44.753Z,68.10
2019-03-16T14:00:13.575Z,72.13
2019-03-16T14:02:41.567Z,78.37
2019-03-16T14:05:09.971Z,82.43
2019-03-16T14:07:38.283Z,75.27
2019-03-16T14:10:08.696Z,69.10
2019-03-16T14:12:36.769Z,72.33
2019-03-16T14:15:04.891Z,72.30
2019-03-16T14:17:32.948Z,69.53
2019-03-16T14:20:00.931Z,69.97
2019-03-16T14:22:28.965Z,72.20
2019-03-16T14:24:56.950Z,77.90
2019-03-16T14:27:25.124Z,74.57
2019-03-16T14:29:53.392Z,76.67
2019-03-16T14:32:21.449Z,70.73
2019-03-16T14:34:49.737Z,71.43
2019-03-16T14:37:18.157Z,72.07
2019-03-16T14:39:46.252Z,71.20
2019-03-16T14:42:14.308Z,70.67
2019-03-16T14:44:42.433Z,73.40
2019-03-16T14:47:10.960Z,72.00
2019-03-16T14:49:39.472Z,74.50
2019-03-16T14:52:07.926Z,73.50
2019-03-16T14:54:36.175Z,73.50
2019-03-16T14:57:04.278Z,72.13
2019-03-16T14:59:32.717Z,75.47
2019-03-16T15:02:00.853Z,70.40
2019-03-16T15:04:28.853Z,72.67
2019-03-16T15:06:56.974Z,72.47
2019-03-16T15:09:24.981Z,75.30
2019-03-16T15:11:53.160Z,74.40
2019-03-16T15:14:22.211Z,72.10
2019-03-16T15:16:50.483Z,70.67
2019-03-16T15:19:18.509Z,77.47
2019-03-16T15:21:46.670Z,71.17
2019-03-16T15:24:15.238Z,69.87
2019-03-16T15:26:43.517Z,72.17
2019-03-16T15:29:11.802Z,71.83
2019-03-16T15:31:40.042Z,71.00
2019-03-16T15:34:08.194Z,72.00
2019-03-16T15:36:36.284Z,70.80
2019-03-16T15:39:06.610Z,72.30
2019-03-16T15:41:34.820Z,71.03
2019-03-16T15:44:03.266Z,71.90
2019-03-16T15:46:31.763Z,73.03
2019-03-16T15:49:00.266Z,71.07
2019-03-16T15:51:28.535Z,72.07
2019-03-16T15:53:56.726Z,71.57
2019-03-16T15:56:27.537Z,72.37
2019-03-16T15:58:54.999Z,73.07
2019-03-16T16:01:23.458Z,82.77
2019-03-16T16:03:51.632Z,74.17
2019-03-16T16:06:20.013Z,72.40
2019-03-16T16:08:48.101Z,73.50
2019-03-16T16:11:16.205Z,72.60
2019-03-16T16:13:44.248Z,74.50
2019-03-16T16:16:12.249Z,71.80
2019-03-16T16:18:40.288Z,73.63
2019-03-16T16:21:08.393Z,71.60
2019-03-16T16:23:36.568Z,71.20
2019-03-16T16:26:04.495Z,71.90
2019-03-16T16:28:32.566Z,74.23
2019-03-16T16:31:00.642Z,72.23
2019-03-16T16:33:28.730Z,71.90
2019-03-16T16:35:56.841Z,72.37
2019-03-16T16:38:24.961Z,77.50
2019-03-16T16:40:53.157Z,74.83
2019-03-16T16:43:21.227Z,76.27
2019-03-16T16:45:50.377Z,78.20
2019-03-16T16:48:18.477Z,71.77
2019-03-16T16:50:46.454Z,74.83
2019-03-16T16:53:14.609Z,74.00
2019-03-16T16:55:42.610Z,72.70
2019-03-16T16:58:10.592Z,72.70
2019-03-16T17:00:38.701Z,75.03
2019-03-16T17:03:06.692Z,73.57
2019-03-16T17:05:34.764Z,72.33
2019-03-16T17:08:02.903Z,72.17
2019-03-16T17:10:30.916Z,74.17
2019-03-16T17:12:59.178Z,72.70
2019-03-16T17:15:27.292Z,74.90
2019-03-16T17:17:55.340Z,83.47
2019-03-16T17:20:23.420Z,83.40
2019-03-16T17:22:51.507Z,84.00
2019-03-16T17:25:19.555Z,76.37
2019-03-16T17:27:47.728Z,77.53
2019-03-16T17:30:16.816Z,73.87
2019-03-16T17:32:44.877Z,80.20
2019-03-16T17:35:12.944Z,76.43
2019-03-16T17:37:40.967Z,78.40
2019-03-16T17:40:09.392Z,79.80
2019-03-16T17:42:37.530Z,80.07
2019-03-16T17:45:05.691Z,82.10
2019-03-16T17:47:33.943Z,85.50
2019-03-16T17:50:01.904Z,77.30
2019-03-16T17:52:29.994Z,77.17
2019-03-16T17:54:58.258Z,74.33
2019-03-16T17:57:26.301Z,82.63
2019-03-16T17:59:54.424Z,76.93
2019-03-16T18:02:22.354Z,77.40
2019-03-16T18:04:50.457Z,75.30
2019-03-16T18:07:18.544Z,76.77
2019-03-16T18:09:46.601Z,76.40
2019-03-16T18:12:15.153Z,81.30
2019-03-16T18:14:43.299Z,75.27
2019-03-16T18:17:11.290Z,81.57
2019-03-16T18:19:39.461Z,74.27
2019-03-16T18:22:07.565Z,75.50
2019-03-16T18:24:35.636Z,75.57
2019-03-16T18:27:03.740Z,74.50
2019-03-16T18:29:31.746Z,75.70
2019-03-16T18:32:07.779Z,77.50
2019-03-16T18:34:29.559Z,76.77
2019-03-16T18:36:57.673Z,79.60
2019-03-16T18:39:25.581Z,76.67
2019-03-16T18:41:53.609Z,78.33
2019-03-16T18:44:21.568Z,78.77
2019-03-16T18:46:49.574Z,75.23
2019-03-16T18:49:17.577Z,78.33
2019-03-16T18:51:45.555Z,74.20
2019-03-16T18:54:13.496Z,82.30
2019-03-16T18:56:41.517Z,78.40
2019-03-16T18:59:09.720Z,79.90
2019-03-16T19:01:37.721Z,76.10
2019-03-16T19:04:05.812Z,79.17
2019-03-16T19:06:33.767Z,78.37
2019-03-16T19:09:01.759Z,81.47
2019-03-16T19:11:29.821Z,75.57
2019-03-16T19:13:57.933Z,77.27
2019-03-16T19:16:25.977Z,82.30
2019-03-16T19:18:54.408Z,83.33
2019-03-16T19:21:22.405Z,81.50
2019-03-16T19:23:50.474Z,88.33
2019-03-16T19:26:19.538Z,78.97
2019-03-16T19:28:47.593Z,82.10
2019-03-16T19:31:15.605Z,81.27
2019-03-16T19:33:43.754Z,82.17
2019-03-16T19:36:11.921Z,81.27
2019-03-16T19:38:40.016Z,77.90
2019-03-16T19:41:08.197Z,77.27
2019-03-16T19:43:36.265Z,76.07
2019-03-16T19:46:04.315Z,75.27
2019-03-16T19:48:32.305Z,77.87
2019-03-16T19:51:00.312Z,75.77
2019-03-16T19:53:28.434Z,73.70
2019-03-16T19:55:56.389Z,78.13
2019-03-16T19:58:24.462Z,77.87
2019-03-16T20:00:52.457Z,75.87
2019-03-16T20:03:20.524Z,74.97
2019-03-16T20:05:48.591Z,74.40
2019-03-16T20:08:16.668Z,76.00
2019-03-16T20:10:44.799Z,78.57
2019-03-16T20:13:12.789Z,85.03
2019-03-16T20:15:43.705Z,79.70
2019-03-16T20:18:10.498Z,78.43
2019-03-16T20:20:38.482Z,78.00
2019-03-16T20:23:06.536Z,78.57
2019-03-16T20:25:34.640Z,77.53
2019-03-16T20:28:02.714Z,79.13
2019-03-16T20:30:30.836Z,79.13
2019-03-16T20:33:03.898Z,76.27
2019-03-16T20:35:28.535Z,79.13
2019-03-16T20:37:56.685Z,75.07
2019-03-16T20:40:24.702Z,81.27
2019-03-16T20:42:52.788Z,82.30
2019-03-16T20:45:20.879Z,79.83
2019-03-16T20:47:48.974Z,85.33
2019-03-16T20:50:18.245Z,80.60
2019-03-16T20:52:46.268Z,85.90
2019-03-16T20:55:14.430Z,79.77
2019-03-16T20:57:42.537Z,82.47
2019-03-16T21:00:10.710Z,79.90
2019-03-16T21:02:38.771Z,82.70
2019-03-16T21:05:06.988Z,81.90
2019-03-16T21:07:35.081Z,82.43
2019-03-16T21:10:03.305Z,82.87
2019-03-16T21:12:31.341Z,78.20
2019-03-16T21:14:59.450Z,80.53
2019-03-16T21:17:27.518Z,79.93
2019-03-16T21:19:55.546Z,81.70
2019-03-16T21:22:35.310Z,84.10
2019-03-16T21:24:53.719Z,79.17
2019-03-16T21:27:21.714Z,80.60
2019-03-16T21:29:49.677Z,76.77
2019-03-16T21:32:17.809Z,79.63
2019-03-16T21:34:45.748Z,79.37
2019-03-16T21:37:13.800Z,76.40
2019-03-16T21:39:41.867Z,79.30
2019-03-16T21:42:09.954Z,76.70
2019-03-16T21:44:38.088Z,78.00
2019-03-16T21:47:06.662Z,78.77
2019-03-16T21:49:34.944Z,80.33
2019-03-16T21:52:03.044Z,76.70
2019-03-16T21:54:30.998Z,79.93
2019-03-16T21:56:59.111Z,79.50
2019-03-16T21:59:27.336Z,78.37
2019-03-16T22:01:55.446Z,84.27
2019-03-16T22:04:23.417Z,79.07
2019-03-16T22:06:51.635Z,89.17
2019-03-16T22:09:19.935Z,91.33
2019-03-16T22:11:47.912Z,130.37
2019-03-16T22:14:16.092Z,125.63
2019-03-16T22:16:44.093Z,176.70
2019-03-16T22:19:12.239Z,100.43
2019-03-16T22:21:40.285Z,91.30
2019-03-16T22:24:08.269Z,82.90
2019-03-16T22:26:36.355Z,82.33
2019-03-16T22:29:04.500Z,78.93
2019-03-16T22:31:32.600Z,75.57
2019-03-16T22:34:00.673Z,101.87
2019-03-16T22:36:28.730Z,94.20
2019-03-16T22:38:56.855Z,93.40
2019-03-16T22:41:25.099Z,88.93
2019-03-16T22:43:53.117Z,100.70
2019-03-16T22:46:21.193Z,90.57
2019-03-16T22:48:49.205Z,87.17
2019-03-16T22:51:17.132Z,84.47
2019-03-16T22:53:45.161Z,83.30
2019-03-16T22:56:13.197Z,77.87
2019-03-16T22:58:41.176Z,80.80
2019-03-16T23:01:09.878Z,80.97
2019-03-16T23:03:37.921Z,81.30
2019-03-16T23:06:06.007Z,81.73
2019-03-16T23:08:33.954Z,83.50
2019-03-16T23:11:01.936Z,81.20
2019-03-16T23:13:29.980Z,78.83
2019-03-16T23:15:57.976Z,82.50
2019-03-16T23:18:26.041Z,80.27
2019-03-16T23:20:54.129Z,81.00
2019-03-16T23:23:22.077Z,82.43
2019-03-16T23:25:50.053Z,82.47
2019-03-16T23:28:18.038Z,81.57
2019-03-16T23:30:46.109Z,82.47
2019-03-16T23:33:14.206Z,83.27
2019-03-16T23:35:42.147Z,80.87
2019-03-16T23:38:10.118Z,80.67
2019-03-16T23:40:38.185Z,80.60
2019-03-16T23:43:06.263Z,80.90
2019-03-16T23:45:34.307Z,81.60
2019-03-16T23:48:02.277Z,83.00
2019-03-16T23:50:30.280Z,81.10
2019-03-16T23:52:58.245Z,79.67
2019-03-16T23:55:26.273Z,80.37
2019-03-16T23:57:56.287Z,83.93
